気象予報士の航空気象 南よりの風によって春が近づく

*All archives   *Admin

2010.03.12 (Fri)

南よりの風によって春が近づく

 今日は温かかったですね。


成田では気温が16℃くらいまで上昇したようです。


しかしながら、乾燥していたので、気流も乱れていたようですね。


RJAA 120400Z 17006KT 130V210 9999 FEW030 BKN/// 16/03 Q1025 WS R16L NOSIG RMK 1CU030 A3027


 またも気圧の谷が通過するようで、夕方から曇ってくるようです。


明日はまたも暖かかくなるようです。


寒暖の差が激しいので、体調管理に気をつけましょう。



ブログランキングに参加しています。
にほんブログ村 環境ブログ 天気・気象学へ
にほんブログ村
応援クリックをおねがします。


以下、アフィリエイトサイトです。




スポンサーサイト
23:45  |  気象・天気  |  TB(0)  |  CM(0)  |  EDIT  |  Top↑

コメントを投稿する


 管理者だけに表示  (非公開コメント投稿可能)

▲PageTop

この記事のトラックバックURL

→http://weathereucalyptus.blog115.fc2.com/tb.php/413-68c1eecb
この記事にトラックバックする(FC2ブログユーザー)

この記事へのトラックバック

▲PageTop

 | BLOGTOP |